Time;durP1;ratioP1;P1;durP2;ratioP2;P2;SDS_P1;SDS_P2;PMS_P1;PMS_P2;Temp;Humidity;BMP_temperature;BMP_pressure;BME280_temperature;BME280_humidity;BME280_pressure;Samples;Min_cycle;Max_cycle;Signal;HPM_P1;HPM_P2
2023/01/27 00:00:47;;;;;;;9.20;3.00;;;;;;;;;;5032940;28;20221;-72
2023/01/27 00:03:12;;;;;;;10.90;2.20;;;;;;;;;;5031610;28;20809;-72
2023/01/27 00:05:38;;;;;;;8.47;2.60;;;;;;;;;;5032314;28;20298;-72
2023/01/27 00:08:03;;;;;;;10.23;2.40;;;;;;;;;;5012223;28;20575;-71
2023/01/27 00:10:29;;;;;;;11.00;2.40;;;;;;;;;;5012273;28;20566;-72
2023/01/27 00:15:38;;;;;;;8.13;2.30;;;;;;;;;;5026989;28;20702;-72
2023/01/27 00:18:03;;;;;;;8.67;2.60;;;;;;;;;;5011634;28;20204;-71
2023/01/27 00:26:00;;;;;;;8.57;2.50;;;;;;;;;;4992087;28;20220;-72
2023/01/27 00:28:25;;;;;;;6.73;2.30;;;;;;;;;;5029613;28;20314;-72
2023/01/27 00:30:51;;;;;;;6.77;2.37;;;;;;;;;;5029618;28;20946;-72
2023/01/27 00:33:26;;;;;;;8.30;2.90;;;;;;;;;;5029561;28;20576;-72
2023/01/27 00:35:58;;;;;;;11.60;3.10;;;;;;;;;;5029418;28;20234;-72
2023/01/27 00:38:23;;;;;;;7.40;3.20;;;;;;;;;;5028936;28;20211;-72
2023/01/27 00:41:14;;;;;;;9.47;3.33;;;;;;;;;;5030333;28;20222;-72
2023/01/27 00:43:33;;;;;;;9.80;3.70;;;;;;;;;;5029268;28;20218;-72
2023/01/27 00:45:59;;;;;;;7.10;3.10;;;;;;;;;;5013141;28;20212;-72
2023/01/27 00:48:24;;;;;;;9.37;3.20;;;;;;;;;;5009823;28;20258;-72
2023/01/27 00:50:49;;;;;;;8.17;3.00;;;;;;;;;;5006618;28;20274;-72
2023/01/27 00:53:15;;;;;;;9.03;3.13;;;;;;;;;;4990904;28;20228;-72
2023/01/27 00:55:40;;;;;;;9.37;3.40;;;;;;;;;;4973365;28;20734;-72
2023/01/27 00:58:05;;;;;;;8.03;2.97;;;;;;;;;;4990249;28;20221;-71
2023/01/27 01:00:31;;;;;;;11.63;3.33;;;;;;;;;;4990045;28;20259;-72
2023/01/27 01:02:56;;;;;;;8.90;2.73;;;;;;;;;;4990578;28;20213;-72
2023/01/27 01:05:21;;;;;;;8.10;3.20;;;;;;;;;;4990183;28;20232;-72
2023/01/27 01:07:46;;;;;;;7.83;3.40;;;;;;;;;;4989820;28;20740;-72
2023/01/27 01:10:12;;;;;;;9.80;3.23;;;;;;;;;;4989990;28;20260;-72
2023/01/27 01:12:37;;;;;;;8.33;3.47;;;;;;;;;;4990354;28;20288;-72
2023/01/27 01:15:03;;;;;;;7.13;3.17;;;;;;;;;;5004484;28;20230;-71
2023/01/27 01:17:28;;;;;;;9.17;3.33;;;;;;;;;;5010113;28;20288;-72
2023/01/27 01:19:53;;;;;;;8.73;3.47;;;;;;;;;;5009342;28;20224;-72
2023/01/27 01:22:18;;;;;;;9.93;3.70;;;;;;;;;;5009795;28;20267;-72
2023/01/27 01:24:44;;;;;;;7.13;3.13;;;;;;;;;;5009983;28;20636;-72
2023/01/27 01:27:09;;;;;;;8.30;3.47;;;;;;;;;;5005384;28;20212;-73
2023/01/27 01:29:34;;;;;;;7.33;3.53;;;;;;;;;;5009975;28;20304;-72
2023/01/27 01:32:00;;;;;;;9.43;4.33;;;;;;;;;;5009942;28;20296;-72
2023/01/27 01:34:25;;;;;;;8.80;4.30;;;;;;;;;;5008717;28;20228;-72
2023/01/27 01:36:50;;;;;;;10.30;4.43;;;;;;;;;;5010212;28;20311;-72
2023/01/27 01:39:15;;;;;;;9.17;3.80;;;;;;;;;;5009492;28;20243;-72
2023/01/27 01:41:41;;;;;;;8.17;4.10;;;;;;;;;;5009360;28;20212;-72
2023/01/27 01:44:20;;;;;;;8.77;4.00;;;;;;;;;;5009401;28;20216;-72
2023/01/27 01:46:45;;;;;;;8.13;4.20;;;;;;;;;;5003147;28;20205;-72
2023/01/27 01:49:10;;;;;;;9.13;3.90;;;;;;;;;;4991664;28;20237;-72
2023/01/27 01:51:38;;;;;;;9.77;4.53;;;;;;;;;;4987279;28;20209;-72
2023/01/27 01:54:13;;;;;;;9.60;4.67;;;;;;;;;;4981078;28;20221;-72
2023/01/27 01:56:46;;;;;;;8.30;4.00;;;;;;;;;;4987963;28;20212;-72
2023/01/27 01:59:13;;;;;;;8.57;4.23;;;;;;;;;;4985634;28;20720;-67
2023/01/27 02:01:38;;;;;;;8.87;4.20;;;;;;;;;;4981086;28;20213;-67
2023/01/27 02:04:04;;;;;;;8.97;4.53;;;;;;;;;;4958082;28;21069;-67
2023/01/27 02:06:31;;;;;;;10.87;4.90;;;;;;;;;;4963678;28;20240;-68
2023/01/27 02:08:57;;;;;;;9.03;4.67;;;;;;;;;;4990836;28;20284;-67
2023/01/27 02:11:22;;;;;;;11.00;4.53;;;;;;;;;;4988629;28;20213;-67
2023/01/27 02:13:47;;;;;;;10.90;4.97;;;;;;;;;;4990545;28;20284;-67
2023/01/27 02:16:13;;;;;;;9.03;4.80;;;;;;;;;;4988191;28;20339;-67
2023/01/27 02:18:39;;;;;;;10.40;4.80;;;;;;;;;;4993613;28;20295;-68
2023/01/27 02:21:04;;;;;;;8.93;4.87;;;;;;;;;;4997855;28;20217;-67
2023/01/27 02:23:33;;;;;;;9.23;5.10;;;;;;;;;;4980842;28;20213;-68
2023/01/27 02:26:14;;;;;;;12.40;5.73;;;;;;;;;;4976825;28;20209;-67
2023/01/27 02:28:39;;;;;;;12.50;6.10;;;;;;;;;;5014315;28;20775;-68
2023/01/27 02:31:04;;;;;;;9.97;5.90;;;;;;;;;;5007329;28;20311;-67
2023/01/27 02:33:30;;;;;;;10.23;6.33;;;;;;;;;;5003178;28;20998;-67
2023/01/27 02:36:12;;;;;;;10.50;6.27;;;;;;;;;;5017774;28;20227;-67
2023/01/27 02:38:38;;;;;;;13.80;6.80;;;;;;;;;;5015649;28;20215;-68
2023/01/27 02:41:07;;;;;;;13.37;6.80;;;;;;;;;;5021583;28;20895;-67
2023/01/27 02:43:32;;;;;;;12.80;6.97;;;;;;;;;;5021221;28;20222;-68
2023/01/27 02:45:57;;;;;;;12.93;7.17;;;;;;;;;;5011005;28;20212;-68
2023/01/27 02:48:23;;;;;;;13.43;7.30;;;;;;;;;;4997382;28;20701;-67
2023/01/27 02:50:48;;;;;;;11.03;7.07;;;;;;;;;;5001931;28;20314;-67
2023/01/27 02:53:13;;;;;;;12.87;7.57;;;;;;;;;;5004110;28;20216;-67
2023/01/27 02:55:39;;;;;;;11.00;7.83;;;;;;;;;;5020672;28;20219;-67
2023/01/27 02:58:04;;;;;;;10.57;7.83;;;;;;;;;;5019889;28;20269;-67
2023/01/27 03:00:29;;;;;;;13.23;8.47;;;;;;;;;;5016072;28;20736;-68
2023/01/27 03:02:55;;;;;;;13.77;8.13;;;;;;;;;;5015376;28;20208;-68
2023/01/27 03:05:20;;;;;;;14.50;9.10;;;;;;;;;;5001506;28;20217;-67
2023/01/27 03:07:45;;;;;;;12.93;8.63;;;;;;;;;;5002266;28;20330;-67
2023/01/27 03:10:10;;;;;;;14.00;9.17;;;;;;;;;;5007700;28;20216;-67
2023/01/27 03:12:36;;;;;;;12.23;8.57;;;;;;;;;;5011352;28;20226;-67
2023/01/27 03:20:29;;;;;;;11.67;8.93;;;;;;;;;;5020655;28;20253;-68
2023/01/27 03:22:54;;;;;;;12.10;8.50;;;;;;;;;;5003439;28;20227;-68
2023/01/27 03:25:20;;;;;;;9.93;7.57;;;;;;;;;;5017269;28;20220;-68
2023/01/27 03:27:45;;;;;;;11.63;7.70;;;;;;;;;;5009841;28;20216;-68
2023/01/27 03:30:11;;;;;;;9.40;6.83;;;;;;;;;;5010911;28;20301;-67
2023/01/27 03:32:36;;;;;;;8.77;7.47;;;;;;;;;;4997718;28;20213;-68
2023/01/27 03:35:02;;;;;;;9.33;7.27;;;;;;;;;;4969507;28;20232;-67
2023/01/27 03:48:24;;;;;;;7.07;5.60;;;;;;;;;;4991452;28;20219;-68
2023/01/27 03:50:52;;;;;;;7.97;5.70;;;;;;;;;;5001703;28;20208;-67
2023/01/27 03:53:18;;;;;;;7.30;5.73;;;;;;;;;;5019871;28;20219;-68
2023/01/27 03:55:45;;;;;;;7.80;5.53;;;;;;;;;;5007879;28;20223;-68
2023/01/27 03:58:17;;;;;;;7.70;5.67;;;;;;;;;;5010997;28;20212;-67
2023/01/27 04:00:42;;;;;;;6.67;5.53;;;;;;;;;;4992733;28;20244;-68
2023/01/27 04:08:35;;;;;;;6.03;5.13;;;;;;;;;;5018141;28;20274;-67
2023/01/27 04:13:45;;;;;;;5.93;5.13;;;;;;;;;;5012907;28;20263;-68
2023/01/27 04:16:10;;;;;;;7.10;5.23;;;;;;;;;;5002765;28;20236;-68
2023/01/27 04:18:36;;;;;;;6.67;5.00;;;;;;;;;;5011478;28;20220;-68
2023/01/27 04:21:02;;;;;;;7.10;5.17;;;;;;;;;;4993277;28;20247;-67
2023/01/27 04:23:27;;;;;;;6.70;4.90;;;;;;;;;;5001781;28;20291;-68
2023/01/27 04:25:53;;;;;;;7.03;5.10;;;;;;;;;;5018358;28;20209;-68
2023/01/27 04:28:18;;;;;;;6.23;4.80;;;;;;;;;;5015588;28;20307;-68
2023/01/27 04:30:43;;;;;;;6.10;4.70;;;;;;;;;;5019816;28;20262;-68
2023/01/27 04:33:09;;;;;;;5.67;4.53;;;;;;;;;;5015565;28;20209;-67
2023/01/27 04:35:34;;;;;;;6.00;4.70;;;;;;;;;;5000806;28;20258;-68
2023/01/27 04:37:59;;;;;;;6.13;4.70;;;;;;;;;;5004512;28;20579;-68
2023/01/27 04:40:25;;;;;;;6.27;4.67;;;;;;;;;;5002112;28;20226;-68
2023/01/27 04:42:51;;;;;;;5.93;4.50;;;;;;;;;;5013098;28;20215;-68
2023/01/27 04:45:17;;;;;;;5.53;4.20;;;;;;;;;;4995339;28;20773;-68
2023/01/27 04:47:42;;;;;;;5.53;4.03;;;;;;;;;;5006904;28;20208;-68
2023/01/27 04:50:08;;;;;;;7.37;4.67;;;;;;;;;;5015039;28;20235;-67
2023/01/27 04:52:33;;;;;;;6.47;4.60;;;;;;;;;;5003194;28;20211;-68
2023/01/27 04:54:58;;;;;;;5.40;4.00;;;;;;;;;;5011830;28;20231;-68
2023/01/27 04:57:24;;;;;;;5.83;4.30;;;;;;;;;;5008021;28;20741;-68
2023/01/27 04:59:49;;;;;;;5.80;4.43;;;;;;;;;;5019502;28;20204;-67
2023/01/27 05:02:15;;;;;;;5.17;4.03;;;;;;;;;;5017463;28;20698;-68
2023/01/27 05:04:40;;;;;;;5.00;3.90;;;;;;;;;;5001459;28;20215;-68
2023/01/27 05:07:05;;;;;;;4.93;3.63;;;;;;;;;;4996626;28;20732;-67
2023/01/27 05:09:31;;;;;;;4.60;3.60;;;;;;;;;;5006293;28;20204;-68
2023/01/27 05:11:56;;;;;;;5.00;3.70;;;;;;;;;;5028328;28;20211;-67
2023/01/27 05:14:22;;;;;;;4.23;3.30;;;;;;;;;;5019732;28;20224;-67
2023/01/27 05:16:47;;;;;;;4.83;3.50;;;;;;;;;;5010160;28;20344;-68
2023/01/27 05:19:12;;;;;;;4.10;3.30;;;;;;;;;;5008795;28;20899;-67
2023/01/27 05:21:38;;;;;;;4.23;3.07;;;;;;;;;;5011922;28;20220;-68
2023/01/27 05:24:03;;;;;;;4.47;3.20;;;;;;;;;;5013337;28;20232;-67
2023/01/27 05:26:28;;;;;;;4.83;3.00;;;;;;;;;;4999086;28;20212;-68
2023/01/27 05:28:55;;;;;;;3.80;2.80;;;;;;;;;;5013751;28;20701;-68
2023/01/27 05:31:21;;;;;;;4.83;2.93;;;;;;;;;;5013316;28;23136;-67
2023/01/27 05:33:47;;;;;;;3.87;2.87;;;;;;;;;;5012917;28;20208;-68
2023/01/27 05:36:13;;;;;;;3.70;2.90;;;;;;;;;;5013184;28;20224;-67
2023/01/27 05:38:39;;;;;;;4.07;2.90;;;;;;;;;;4996066;28;20566;-68
2023/01/27 05:41:04;;;;;;;3.37;2.80;;;;;;;;;;5012432;28;20216;-67
2023/01/27 05:43:30;;;;;;;4.20;3.10;;;;;;;;;;5013546;28;20859;-68
2023/01/27 05:46:07;;;;;;;4.20;3.00;;;;;;;;;;4995682;28;20270;-68
2023/01/27 05:48:33;;;;;;;4.73;3.10;;;;;;;;;;5012535;28;20216;-68
2023/01/27 05:50:58;;;;;;;4.07;3.20;;;;;;;;;;5013321;28;20212;-67
2023/01/27 05:53:23;;;;;;;4.47;3.20;;;;;;;;;;4995276;28;20678;-67
2023/01/27 05:55:49;;;;;;;4.07;2.90;;;;;;;;;;5012543;28;20323;-67
2023/01/27 05:58:15;;;;;;;4.30;3.00;;;;;;;;;;5012835;28;20707;-68
2023/01/27 06:00:40;;;;;;;3.80;3.00;;;;;;;;;;5012996;28;20741;-68
2023/01/27 06:03:05;;;;;;;5.00;2.90;;;;;;;;;;5012046;28;20579;-67
2023/01/27 06:05:31;;;;;;;3.83;2.90;;;;;;;;;;5013250;28;20220;-68
2023/01/27 06:07:56;;;;;;;4.20;2.63;;;;;;;;;;4996618;28;20327;-67
2023/01/27 06:10:21;;;;;;;3.53;2.90;;;;;;;;;;4981922;28;20405;-68
2023/01/27 06:12:46;;;;;;;4.23;3.13;;;;;;;;;;4988803;28;20210;-68
2023/01/27 06:15:12;;;;;;;4.03;2.80;;;;;;;;;;4990457;28;20228;-68
2023/01/27 06:17:37;;;;;;;4.33;2.80;;;;;;;;;;5000263;28;20707;-68
2023/01/27 06:20:03;;;;;;;3.70;2.90;;;;;;;;;;5002671;28;20228;-67
2023/01/27 06:22:28;;;;;;;4.17;2.83;;;;;;;;;;4996163;28;20217;-68
2023/01/27 06:24:53;;;;;;;4.28;2.70;;;;;;;;;;4981997;28;20227;-68
2023/01/27 06:27:19;;;;;;;3.40;2.80;;;;;;;;;;4980644;28;20713;-68
2023/01/27 06:29:44;;;;;;;4.23;2.73;;;;;;;;;;4975548;28;20224;-68
2023/01/27 06:32:09;;;;;;;3.85;2.70;;;;;;;;;;4979266;28;20242;-67
2023/01/27 06:34:34;;;;;;;2.63;2.33;;;;;;;;;;5001880;28;20220;-68
2023/01/27 06:37:00;;;;;;;4.57;2.60;;;;;;;;;;4995384;28;20225;-68
2023/01/27 06:39:25;;;;;;;3.33;2.30;;;;;;;;;;4983040;28;20213;-68
2023/01/27 06:41:50;;;;;;;3.17;2.30;;;;;;;;;;5000669;28;20243;-67
2023/01/27 06:44:16;;;;;;;2.90;2.37;;;;;;;;;;4987121;28;20224;-68
2023/01/27 06:46:41;;;;;;;2.57;1.90;;;;;;;;;;4984025;28;20299;-68
2023/01/27 06:49:06;;;;;;;3.40;2.13;;;;;;;;;;4995901;28;20349;-68
2023/01/27 06:51:32;;;;;;;3.20;2.20;;;;;;;;;;4978660;28;20213;-68
2023/01/27 06:53:57;;;;;;;2.97;2.20;;;;;;;;;;4975533;28;20263;-68
2023/01/27 06:56:22;;;;;;;2.70;2.00;;;;;;;;;;4982356;28;20231;-68
2023/01/27 06:58:48;;;;;;;3.67;2.30;;;;;;;;;;4982833;28;20240;-68
2023/01/27 07:01:13;;;;;;;3.80;2.40;;;;;;;;;;4987647;28;20337;-68
2023/01/27 07:03:38;;;;;;;2.73;2.17;;;;;;;;;;4983530;28;20575;-68
2023/01/27 07:06:04;;;;;;;2.43;1.93;;;;;;;;;;4990425;28;20205;-67
2023/01/27 07:08:29;;;;;;;3.80;2.20;;;;;;;;;;4982921;28;20619;-65
2023/01/27 07:10:54;;;;;;;3.60;2.53;;;;;;;;;;4981591;28;20243;-68
2023/01/27 07:13:19;;;;;;;3.17;2.07;;;;;;;;;;4993354;28;20631;-66
2023/01/27 07:15:45;;;;;;;3.10;2.30;;;;;;;;;;4974650;28;20214;-66
2023/01/27 07:18:12;;;;;;;3.03;2.23;;;;;;;;;;4997660;28;20224;-66
2023/01/27 07:20:38;;;;;;;3.33;2.43;;;;;;;;;;5001698;28;20703;-66
2023/01/27 07:23:03;;;;;;;3.23;2.13;;;;;;;;;;4984133;28;20216;-67
2023/01/27 07:25:30;;;;;;;4.83;2.40;;;;;;;;;;5001041;28;20212;-66
2023/01/27 07:27:57;;;;;;;4.03;2.30;;;;;;;;;;4984144;28;20245;-66
2023/01/27 07:30:22;;;;;;;4.13;2.00;;;;;;;;;;5001505;28;20251;-67
2023/01/27 07:32:49;;;;;;;2.90;1.90;;;;;;;;;;4998637;28;20252;-66
2023/01/27 07:35:14;;;;;;;3.17;2.10;;;;;;;;;;5002197;28;20234;-66
2023/01/27 07:37:40;;;;;;;2.80;2.10;;;;;;;;;;4993845;28;20408;-65
2023/01/27 07:40:06;;;;;;;2.60;2.03;;;;;;;;;;4990738;28;20221;-66
2023/01/27 07:42:32;;;;;;;3.53;2.00;;;;;;;;;;4991621;28;20271;-67
2023/01/27 07:44:57;;;;;;;3.33;2.03;;;;;;;;;;4991263;28;20436;-66
2023/01/27 07:47:23;;;;;;;1.90;1.70;;;;;;;;;;4990413;28;20287;-67
2023/01/27 07:49:48;;;;;;;2.60;1.97;;;;;;;;;;4994081;28;20716;-67
2023/01/27 07:52:13;;;;;;;2.83;2.00;;;;;;;;;;5010734;28;20223;-67
2023/01/27 07:54:39;;;;;;;4.00;2.00;;;;;;;;;;5007416;28;20241;-66
2023/01/27 07:57:04;;;;;;;2.00;1.70;;;;;;;;;;4991151;28;20619;-66
2023/01/27 07:59:29;;;;;;;2.60;1.80;;;;;;;;;;4991706;28;20217;-66
2023/01/27 08:01:55;;;;;;;2.20;1.83;;;;;;;;;;4990951;28;20224;-67
2023/01/27 08:04:20;;;;;;;2.17;1.90;;;;;;;;;;4990973;28;20225;-66
2023/01/27 08:06:45;;;;;;;2.30;1.60;;;;;;;;;;5001120;28;20235;-67
2023/01/27 08:09:11;;;;;;;2.70;2.07;;;;;;;;;;5009757;28;20757;-66
2023/01/27 08:11:36;;;;;;;2.27;1.97;;;;;;;;;;4993292;28;20204;-66
2023/01/27 08:14:01;;;;;;;2.27;1.70;;;;;;;;;;5003801;28;20350;-65
2023/01/27 08:16:27;;;;;;;1.83;1.57;;;;;;;;;;4990774;28;20209;-65
2023/01/27 08:18:52;;;;;;;2.93;1.60;;;;;;;;;;4991102;28;20221;-66
2023/01/27 08:21:18;;;;;;;2.87;1.60;;;;;;;;;;4990734;28;20209;-66
2023/01/27 08:23:43;;;;;;;2.73;1.50;;;;;;;;;;4990437;28;20209;-67
2023/01/27 08:26:08;;;;;;;2.07;1.60;;;;;;;;;;4994144;28;20743;-66
2023/01/27 08:28:35;;;;;;;2.60;1.57;;;;;;;;;;4990418;28;20205;-67
2023/01/27 08:31:07;;;;;;;3.53;1.90;;;;;;;;;;4991372;28;20229;-67
2023/01/27 08:33:32;;;;;;;2.17;1.60;;;;;;;;;;4990582;28;20275;-67
2023/01/27 08:36:00;;;;;;;3.80;1.90;;;;;;;;;;5002913;28;20700;-67
2023/01/27 08:38:26;;;;;;;1.87;1.60;;;;;;;;;;5023149;28;20305;-67
2023/01/27 08:40:51;;;;;;;49.80;26.73;;;;;;;;;;5017598;28;20278;-67
2023/01/27 08:43:16;;;;;;;6.67;4.73;;;;;;;;;;5014736;28;20614;-67
2023/01/27 08:45:42;;;;;;;3.87;3.03;;;;;;;;;;5013251;28;20216;-66
2023/01/27 08:48:07;;;;;;;4.67;3.47;;;;;;;;;;5013041;28;20212;-66
2023/01/27 08:50:32;;;;;;;5.37;4.77;;;;;;;;;;5020092;28;20286;-66
2023/01/27 08:52:58;;;;;;;2.80;2.30;;;;;;;;;;5032406;28;20729;-67
2023/01/27 08:55:25;;;;;;;3.73;2.57;;;;;;;;;;5031712;28;20227;-67
2023/01/27 08:57:50;;;;;;;9.23;2.40;;;;;;;;;;5035468;28;20298;-67
2023/01/27 09:00:16;;;;;;;3.53;2.20;;;;;;;;;;5036097;28;20311;-67
2023/01/27 09:02:42;;;;;;;4.20;2.13;;;;;;;;;;5036488;28;20670;-67
2023/01/27 09:05:08;;;;;;;2.63;1.90;;;;;;;;;;5035014;28;20585;-67
2023/01/27 09:07:33;;;;;;;2.97;2.27;;;;;;;;;;5036250;28;20219;-67
2023/01/27 09:09:58;;;;;;;2.70;2.20;;;;;;;;;;5036029;28;20258;-67
2023/01/27 09:12:24;;;;;;;22.03;17.47;;;;;;;;;;5034754;28;20246;-67
2023/01/27 09:14:49;;;;;;;5.63;4.27;;;;;;;;;;5022847;28;20311;-67
2023/01/27 09:17:18;;;;;;;7.77;5.57;;;;;;;;;;5015872;28;20225;-65
2023/01/27 09:19:43;;;;;;;5.50;3.87;;;;;;;;;;5015224;28;20215;-66
2023/01/27 09:22:09;;;;;;;18.70;16.80;;;;;;;;;;5015551;28;20220;-67
2023/01/27 09:24:34;;;;;;;6.00;4.00;;;;;;;;;;5016099;28;20625;-68
2023/01/27 09:26:59;;;;;;;3.73;2.80;;;;;;;;;;5015320;28;20737;-67
2023/01/27 09:29:24;;;;;;;4.20;2.87;;;;;;;;;;5015516;28;20209;-66
2023/01/27 09:31:50;;;;;;;4.97;3.00;;;;;;;;;;5031517;28;20216;-67
2023/01/27 09:34:16;;;;;;;4.53;3.80;;;;;;;;;;5035308;28;20216;-66
2023/01/27 09:36:43;;;;;;;4.53;3.60;;;;;;;;;;5035593;28;20330;-66
2023/01/27 09:39:08;;;;;;;3.50;2.80;;;;;;;;;;5016748;28;20212;-66
2023/01/27 09:41:33;;;;;;;5.40;4.23;;;;;;;;;;5035572;28;20208;-66
2023/01/27 09:44:02;;;;;;;5.63;4.70;;;;;;;;;;5035328;28;20216;-66
2023/01/27 09:46:46;;;;;;;4.73;3.13;;;;;;;;;;4993773;28;20218;-66
2023/01/27 09:49:19;;;;;;;3.63;3.13;;;;;;;;;;5015351;28;20231;-66
2023/01/27 09:51:53;;;;;;;2.83;2.53;;;;;;;;;;5033809;28;20204;-66
2023/01/27 09:54:18;;;;;;;5.20;4.30;;;;;;;;;;5016724;28;20218;-66
2023/01/27 09:56:51;;;;;;;3.37;2.77;;;;;;;;;;5035432;28;20220;-66
2023/01/27 09:59:32;;;;;;;3.77;2.83;;;;;;;;;;5017043;28;20215;-66
2023/01/27 10:02:01;;;;;;;4.03;3.03;;;;;;;;;;5016665;28;20573;-66
2023/01/27 10:04:41;;;;;;;2.83;2.43;;;;;;;;;;5017265;28;20212;-66
2023/01/27 10:07:07;;;;;;;3.87;2.90;;;;;;;;;;5003267;28;20208;-66
2023/01/27 10:09:38;;;;;;;3.13;2.50;;;;;;;;;;5015391;28;20689;-66
2023/01/27 10:12:10;;;;;;;3.13;2.57;;;;;;;;;;5014750;28;20216;-66
2023/01/27 10:14:38;;;;;;;4.90;2.90;;;;;;;;;;5007798;28;20227;-66
2023/01/27 10:17:19;;;;;;;2.93;2.60;;;;;;;;;;5034652;28;20682;-66
2023/01/27 10:19:50;;;;;;;2.73;2.50;;;;;;;;;;5034990;28;20211;-66
2023/01/27 10:22:26;;;;;;;4.97;4.40;;;;;;;;;;5033270;28;20212;-66
2023/01/27 10:24:58;;;;;;;3.13;2.83;;;;;;;;;;5034940;28;20222;-66
2023/01/27 10:27:24;;;;;;;5.17;3.70;;;;;;;;;;5034292;28;20647;-66
2023/01/27 10:29:55;;;;;;;3.90;3.07;;;;;;;;;;5033949;28;20227;-66
2023/01/27 10:32:21;;;;;;;4.17;2.90;;;;;;;;;;5016514;28;20219;-66
2023/01/27 10:34:46;;;;;;;3.70;2.90;;;;;;;;;;5034788;28;20229;-66
2023/01/27 10:37:12;;;;;;;3.23;2.73;;;;;;;;;;5033135;28;20220;-66
2023/01/27 10:39:42;;;;;;;3.80;2.83;;;;;;;;;;5034654;28;20278;-66
2023/01/27 10:42:14;;;;;;;3.63;2.77;;;;;;;;;;5016490;28;20254;-66
2023/01/27 10:44:44;;;;;;;3.00;2.70;;;;;;;;;;5016927;28;20211;-66
2023/01/27 10:47:29;;;;;;;3.90;2.63;;;;;;;;;;5020956;28;20216;-66
2023/01/27 10:49:55;;;;;;;3.37;2.90;;;;;;;;;;4999533;28;20673;-66
2023/01/27 10:52:23;;;;;;;4.40;2.87;;;;;;;;;;5033646;28;20294;-66
2023/01/27 10:54:48;;;;;;;3.10;2.80;;;;;;;;;;5034451;28;20224;-66
2023/01/27 10:57:19;;;;;;;3.57;3.27;;;;;;;;;;5032953;28;20223;-68
2023/01/27 10:59:47;;;;;;;3.87;3.27;;;;;;;;;;5034098;28;20295;-66
2023/01/27 11:02:13;;;;;;;3.40;3.10;;;;;;;;;;5015978;28;20238;-66
2023/01/27 11:04:41;;;;;;;3.30;2.70;;;;;;;;;;5015759;28;20366;-66
2023/01/27 11:07:07;;;;;;;2.90;2.60;;;;;;;;;;5003187;28;20221;-65
2023/01/27 11:09:34;;;;;;;3.13;2.83;;;;;;;;;;4996779;28;20220;-66
2023/01/27 11:12:01;;;;;;;2.53;2.33;;;;;;;;;;4995772;28;20237;-66
2023/01/27 11:14:28;;;;;;;3.67;2.27;;;;;;;;;;5006320;28;20208;-66
2023/01/27 11:16:56;;;;;;;3.00;2.50;;;;;;;;;;5016086;28;20574;-66
2023/01/27 11:19:23;;;;;;;3.33;2.50;;;;;;;;;;5032020;28;20216;-66
2023/01/27 11:21:49;;;;;;;2.67;2.47;;;;;;;;;;5033509;28;20215;-66
2023/01/27 11:24:21;;;;;;;3.40;2.50;;;;;;;;;;5015854;28;20207;-66
2023/01/27 11:26:47;;;;;;;2.53;2.30;;;;;;;;;;5015740;28;20212;-66
2023/01/27 11:29:14;;;;;;;3.23;2.50;;;;;;;;;;5015778;28;20219;-66
2023/01/27 11:31:43;;;;;;;2.83;2.60;;;;;;;;;;5032671;28;20227;-66
2023/01/27 11:34:15;;;;;;;2.73;2.50;;;;;;;;;;5015484;28;20208;-66
2023/01/27 11:36:41;;;;;;;2.47;2.27;;;;;;;;;;5033557;28;20705;-66
2023/01/27 11:39:08;;;;;;;3.00;2.67;;;;;;;;;;5022369;28;20242;-66
2023/01/27 11:41:35;;;;;;;2.90;2.60;;;;;;;;;;5015548;28;20535;-66
2023/01/27 11:44:02;;;;;;;3.17;2.43;;;;;;;;;;5032913;28;20671;-66
2023/01/27 11:46:30;;;;;;;3.30;2.73;;;;;;;;;;5024971;28;20247;-67
2023/01/27 11:48:55;;;;;;;3.47;2.57;;;;;;;;;;5013646;28;20215;-66
2023/01/27 11:51:22;;;;;;;4.07;3.13;;;;;;;;;;5010205;28;20548;-66
2023/01/27 11:53:48;;;;;;;3.00;2.70;;;;;;;;;;5031899;28;20299;-66
2023/01/27 11:56:15;;;;;;;3.75;2.92;;;;;;;;;;5015010;28;20488;-65
2023/01/27 11:58:40;;;;;;;3.23;2.60;;;;;;;;;;5015600;28;20298;-66
2023/01/27 12:01:09;;;;;;;3.60;3.03;;;;;;;;;;5031732;28;20671;-65
2023/01/27 12:03:41;;;;;;;3.60;2.80;;;;;;;;;;5015485;28;20211;-65
2023/01/27 12:06:10;;;;;;;3.10;2.73;;;;;;;;;;5028184;28;20311;-65
2023/01/27 12:08:38;;;;;;;3.73;2.63;;;;;;;;;;5011673;28;20235;-66
2023/01/27 12:11:16;;;;;;;3.53;2.80;;;;;;;;;;4995268;28;20220;-70
2023/01/27 12:13:51;;;;;;;2.87;2.60;;;;;;;;;;5016032;28;20539;-66
2023/01/27 12:16:16;;;;;;;3.50;2.50;;;;;;;;;;5032131;28;20229;-66
2023/01/27 12:18:47;;;;;;;4.03;2.80;;;;;;;;;;5015251;28;20310;-68
2023/01/27 12:21:12;;;;;;;2.63;2.30;;;;;;;;;;5031499;28;20208;-67
2023/01/27 12:23:39;;;;;;;3.23;2.40;;;;;;;;;;5032147;28;20222;-67
2023/01/27 12:26:06;;;;;;;3.50;2.80;;;;;;;;;;4997892;28;20586;-67
2023/01/27 12:28:33;;;;;;;2.73;2.53;;;;;;;;;;5031731;28;20547;-68
2023/01/27 12:31:03;;;;;;;3.47;2.80;;;;;;;;;;5014819;28;20698;-68
2023/01/27 12:33:30;;;;;;;3.30;3.00;;;;;;;;;;5012489;28;20287;-67
2023/01/27 12:35:57;;;;;;;3.47;3.17;;;;;;;;;;5012077;28;20343;-67
2023/01/27 12:38:22;;;;;;;2.90;2.70;;;;;;;;;;4994583;28;20334;-67
2023/01/27 12:40:49;;;;;;;2.70;2.33;;;;;;;;;;4995058;28;20236;-68
2023/01/27 12:43:15;;;;;;;4.67;3.10;;;;;;;;;;4994048;28;20216;-67
2023/01/27 12:45:42;;;;;;;3.27;2.50;;;;;;;;;;5012162;28;20216;-67
2023/01/27 12:48:08;;;;;;;4.43;3.13;;;;;;;;;;4992290;28;20216;-67
2023/01/27 12:50:35;;;;;;;3.13;2.43;;;;;;;;;;5020371;28;20207;-67
2023/01/27 12:53:04;;;;;;;3.33;2.80;;;;;;;;;;5013903;28;20222;-67
2023/01/27 12:55:30;;;;;;;3.00;2.60;;;;;;;;;;5014618;28;20635;-67
2023/01/27 12:57:55;;;;;;;2.90;2.60;;;;;;;;;;5031481;28;20215;-68
2023/01/27 13:00:21;;;;;;;3.10;2.80;;;;;;;;;;5028909;28;20315;-67
2023/01/27 13:02:47;;;;;;;5.67;5.07;;;;;;;;;;5012248;28;20216;-68
2023/01/27 13:05:14;;;;;;;4.53;4.10;;;;;;;;;;5011292;28;20208;-67
2023/01/27 13:07:42;;;;;;;4.10;3.70;;;;;;;;;;5013261;28;20226;-68
2023/01/27 13:10:15;;;;;;;4.03;3.70;;;;;;;;;;5030779;28;20274;-67
2023/01/27 13:12:47;;;;;;;3.50;3.10;;;;;;;;;;5032203;28;20678;-67
2023/01/27 13:15:14;;;;;;;3.60;3.20;;;;;;;;;;5004303;28;20719;-67
2023/01/27 13:17:41;;;;;;;3.20;2.90;;;;;;;;;;4990714;28;20213;-67
2023/01/27 13:20:17;;;;;;;3.67;3.20;;;;;;;;;;4992308;28;20209;-67
2023/01/27 13:22:43;;;;;;;3.97;3.30;;;;;;;;;;4992581;28;20216;-67
2023/01/27 13:25:12;;;;;;;4.00;3.60;;;;;;;;;;4990061;28;20209;-67
2023/01/27 13:27:38;;;;;;;3.87;3.47;;;;;;;;;;4991618;28;20221;-67
2023/01/27 13:30:12;;;;;;;4.60;3.77;;;;;;;;;;4991260;28;20213;-67
2023/01/27 13:32:37;;;;;;;4.40;3.80;;;;;;;;;;5010276;28;20214;-67
2023/01/27 13:35:14;;;;;;;4.43;3.57;;;;;;;;;;5011945;28;20600;-67
2023/01/27 13:37:40;;;;;;;4.30;3.47;;;;;;;;;;5012315;28;20204;-67
2023/01/27 13:40:13;;;;;;;4.40;3.60;;;;;;;;;;5009675;28;20223;-67
2023/01/27 13:42:43;;;;;;;5.07;3.97;;;;;;;;;;5012601;28;20679;-67
2023/01/27 13:45:11;;;;;;;4.13;3.70;;;;;;;;;;5014734;28;20213;-67
2023/01/27 13:47:36;;;;;;;4.13;3.30;;;;;;;;;;5013861;28;20289;-67
2023/01/27 13:50:04;;;;;;;4.40;3.70;;;;;;;;;;5011026;28;20619;-67
2023/01/27 13:52:29;;;;;;;6.07;4.10;;;;;;;;;;4995297;28;20209;-67
2023/01/27 13:54:55;;;;;;;13.00;8.07;;;;;;;;;;4996136;28;21072;-67
2023/01/27 13:57:38;;;;;;;41.03;20.23;;;;;;;;;;4995717;28;20220;-67
2023/01/27 14:00:20;;;;;;;12.73;7.83;;;;;;;;;;4995073;28;20240;-67
2023/01/27 14:02:46;;;;;;;5.00;4.47;;;;;;;;;;5015700;28;20303;-66
2023/01/27 14:05:17;;;;;;;6.67;6.03;;;;;;;;;;5015172;28;20239;-65
2023/01/27 14:07:47;;;;;;;5.53;4.60;;;;;;;;;;4996941;28;20271;-65
2023/01/27 14:10:23;;;;;;;5.70;4.53;;;;;;;;;;4977904;28;20744;-65
2023/01/27 14:12:54;;;;;;;4.33;3.93;;;;;;;;;;4978390;28;20212;-65
2023/01/27 14:15:22;;;;;;;5.17;4.20;;;;;;;;;;4991263;28;20216;-66
2023/01/27 14:17:48;;;;;;;4.70;4.07;;;;;;;;;;4978506;28;20297;-64
2023/01/27 14:20:14;;;;;;;4.77;3.97;;;;;;;;;;4994227;28;20320;-65
2023/01/27 14:22:45;;;;;;;4.43;3.90;;;;;;;;;;4995313;28;20732;-65
2023/01/27 14:25:11;;;;;;;5.10;4.07;;;;;;;;;;4977871;28;20237;-65
2023/01/27 14:27:39;;;;;;;4.50;3.83;;;;;;;;;;4998768;28;20212;-66
2023/01/27 14:30:04;;;;;;;4.70;4.20;;;;;;;;;;5013146;28;20216;-66
2023/01/27 14:32:31;;;;;;;4.73;4.33;;;;;;;;;;4995393;28;20213;-67
2023/01/27 14:35:04;;;;;;;4.70;4.10;;;;;;;;;;4993714;28;20646;-67
2023/01/27 14:37:30;;;;;;;5.27;4.10;;;;;;;;;;5014773;28;20216;-65
2023/01/27 14:40:00;;;;;;;5.93;4.30;;;;;;;;;;5014712;28;20221;-65
2023/01/27 14:42:28;;;;;;;5.13;4.03;;;;;;;;;;5013642;28;20209;-67
2023/01/27 14:44:57;;;;;;;4.47;3.90;;;;;;;;;;5014539;28;20212;-67
2023/01/27 14:47:24;;;;;;;4.20;3.80;;;;;;;;;;5009316;28;20214;-66
2023/01/27 14:50:08;;;;;;;4.50;4.00;;;;;;;;;;5004294;28;20783;-65
2023/01/27 14:52:35;;;;;;;4.40;3.90;;;;;;;;;;5014131;28;20208;-65
2023/01/27 14:55:19;;;;;;;4.20;3.37;;;;;;;;;;5012961;28;20229;-65
2023/01/27 14:57:48;;;;;;;4.97;4.20;;;;;;;;;;5002278;28;20220;-66
2023/01/27 15:00:17;;;;;;;4.53;3.90;;;;;;;;;;4990715;28;20216;-65
2023/01/27 15:02:43;;;;;;;4.13;3.73;;;;;;;;;;5001661;28;20215;-65
2023/01/27 15:05:22;;;;;;;4.00;3.60;;;;;;;;;;5022254;28;20224;-65
2023/01/27 15:07:49;;;;;;;4.43;3.43;;;;;;;;;;5009542;28;20302;-65
2023/01/27 15:10:24;;;;;;;5.53;3.53;;;;;;;;;;5007782;28;20274;-65
2023/01/27 15:12:50;;;;;;;3.67;3.10;;;;;;;;;;5011213;28;20227;-65